createdAt,value
2022-11-28T00:04:53.709Z,101055.47
2022-11-28T00:09:56.345Z,101054.53
2022-11-28T00:14:58.773Z,101037.41
2022-11-28T00:20:01.024Z,101045.31
2022-11-28T00:25:03.228Z,101048.78
2022-11-28T00:30:06.375Z,101059.16
2022-11-28T00:35:08.663Z,101025.66
2022-11-28T00:40:11.467Z,101035.53
2022-11-28T00:45:13.982Z,101059.50
2022-11-28T00:50:16.508Z,101023.81
2022-11-28T00:55:18.719Z,101025.81
2022-11-28T01:00:21.542Z,101040.06
2022-11-28T01:05:23.861Z,101021.00
2022-11-28T01:10:27.454Z,101004.75
2022-11-28T01:15:29.750Z,101004.56
2022-11-28T01:20:32.330Z,100995.88
2022-11-28T01:25:34.566Z,100989.81
2022-11-28T01:30:37.008Z,101028.13
2022-11-28T01:35:39.375Z,101023.72
2022-11-28T01:40:46.855Z,101019.19
2022-11-28T01:45:49.495Z,100990.59
2022-11-28T01:50:55.156Z,100981.16
2022-11-28T01:56:15.903Z,101021.31
2022-11-28T02:01:19.955Z,100995.31
2022-11-28T02:06:25.011Z,101029.09
2022-11-28T02:11:38.971Z,101003.41
2022-11-28T02:17:11.816Z,101020.09
2022-11-28T02:22:14.004Z,101022.00
2022-11-28T02:27:28.388Z,101023.97
2022-11-28T02:32:44.958Z,101019.78
2022-11-28T02:38:13.645Z,101005.16
2022-11-28T02:43:27.293Z,100998.03
2022-11-28T02:48:38.451Z,101028.47
2022-11-28T02:53:44.393Z,101023.22
2022-11-28T02:58:46.753Z,101024.34
2022-11-28T03:04:06.805Z,100973.59
2022-11-28T03:09:49.751Z,101006.47
2022-11-28T03:15:08.218Z,100994.63
2022-11-28T03:20:26.400Z,101018.88
2022-11-28T03:25:40.941Z,100988.53
2022-11-28T03:30:51.412Z,100975.22
2022-11-28T03:36:01.997Z,100993.81
2022-11-28T03:41:11.163Z,101001.94
2022-11-28T03:46:17.372Z,101005.53
2022-11-28T03:51:26.200Z,101007.34
2022-11-28T03:56:55.515Z,101001.81
2022-11-28T04:02:04.046Z,101022.34
2022-11-28T04:07:30.250Z,101001.59
2022-11-28T04:13:01.198Z,101020.34
2022-11-28T04:18:11.485Z,101004.44
2022-11-28T04:23:15.670Z,101028.13
2022-11-28T04:28:22.029Z,101021.91
2022-11-28T04:33:27.071Z,101006.94
2022-11-28T04:38:32.612Z,100995.50
2022-11-28T04:43:39.180Z,100994.50
2022-11-28T04:48:42.158Z,101010.63
2022-11-28T04:54:12.719Z,101031.44
2022-11-28T04:59:16.196Z,100995.63
2022-11-28T05:04:18.597Z,101027.00
2022-11-28T05:09:20.929Z,100991.31
2022-11-28T05:14:23.745Z,101028.38
2022-11-28T05:19:26.161Z,101033.72
2022-11-28T05:24:42.794Z,101024.06
2022-11-28T05:29:52.084Z,101023.94
2022-11-28T05:34:54.954Z,101006.72
2022-11-28T05:39:57.579Z,101007.84
2022-11-28T05:44:59.805Z,100998.47
2022-11-28T05:50:02.285Z,101021.16
2022-11-28T05:55:04.974Z,101014.91
2022-11-28T06:00:08.100Z,101007.88
2022-11-28T06:05:34.571Z,101011.25
2022-11-28T06:10:32.598Z,101016.28
2022-11-28T06:15:37.993Z,101008.19
2022-11-28T06:20:41.003Z,101027.22
2022-11-28T06:25:43.319Z,101036.28
2022-11-28T06:30:45.810Z,101014.16
2022-11-28T06:35:48.080Z,101019.41
2022-11-28T06:40:50.399Z,101040.47
2022-11-28T06:45:53.247Z,101027.78
2022-11-28T06:50:55.841Z,100991.09
2022-11-28T06:55:58.200Z,101010.09
2022-11-28T07:01:07.878Z,101025.22
2022-11-28T07:06:11.033Z,101044.38
2022-11-28T07:11:16.237Z,101016.78
2022-11-28T07:16:26.462Z,101033.28
2022-11-28T07:21:29.914Z,101040.84
2022-11-28T07:26:33.171Z,101022.47
2022-11-28T07:31:37.563Z,101032.25
2022-11-28T07:36:39.954Z,101038.00
2022-11-28T07:41:42.301Z,101036.81
2022-11-28T07:52:08.487Z,101021.13
2022-11-28T07:57:12.467Z,101022.47
2022-11-28T08:07:39.875Z,101020.03
2022-11-28T08:12:43.195Z,101000.50
2022-11-28T08:17:45.896Z,101011.84
2022-11-28T08:22:48.325Z,101025.47
2022-11-28T08:27:50.555Z,100997.75
2022-11-28T08:32:52.932Z,101008.44
2022-11-28T08:37:58.994Z,100985.63
2022-11-28T08:43:04.589Z,100975.88
2022-11-28T08:48:07.035Z,100986.22
2022-11-28T08:53:09.473Z,100990.63
2022-11-28T08:58:12.700Z,100980.31
2022-11-28T09:03:19.993Z,100992.84
2022-11-28T09:08:22.416Z,100976.31
2022-11-28T09:13:24.723Z,100929.09
2022-11-28T09:18:27.574Z,100969.31
2022-11-28T09:23:30.108Z,100970.09
2022-11-28T09:28:32.489Z,100971.00
2022-11-28T09:33:35.113Z,100946.56
2022-11-28T09:38:38.371Z,100941.94
2022-11-28T09:43:44.549Z,100927.06
2022-11-28T09:48:51.441Z,100950.78
2022-11-28T09:54:20.161Z,100918.69
2022-11-28T09:59:28.580Z,100918.41
2022-11-28T10:04:56.161Z,100921.63
2022-11-28T10:10:19.706Z,100911.78
2022-11-28T10:15:34.544Z,100911.16
2022-11-28T10:20:46.196Z,100910.13
2022-11-28T10:25:57.110Z,100909.88
2022-11-28T10:31:34.528Z,100905.69
2022-11-28T10:36:52.554Z,100907.34
2022-11-28T10:42:14.957Z,100904.69
2022-11-28T10:47:37.517Z,100891.41
2022-11-28T10:52:50.465Z,100893.47
2022-11-28T10:58:23.848Z,100887.78
2022-11-28T11:03:30.387Z,100881.41
2022-11-28T11:08:41.151Z,100881.78
2022-11-28T11:14:01.190Z,100875.56
2022-11-28T11:19:03.707Z,100826.72
2022-11-28T11:24:16.847Z,100872.69
2022-11-28T11:29:30.515Z,100864.50
2022-11-28T11:34:44.593Z,100829.56
2022-11-28T11:39:52.148Z,100854.28
2022-11-28T11:44:55.276Z,100829.72
2022-11-28T11:50:05.892Z,100844.59
2022-11-28T11:55:16.226Z,100862.16
2022-11-28T12:00:26.310Z,100835.91
2022-11-28T12:05:46.704Z,100849.28
2022-11-28T12:11:06.283Z,100840.59
2022-11-28T12:16:41.123Z,100846.44
2022-11-28T12:21:55.441Z,100838.56
2022-11-28T12:27:13.615Z,100815.66
2022-11-28T12:32:29.739Z,100818.53
2022-11-28T12:38:11.675Z,100820.50
2022-11-28T12:43:31.457Z,100809.78
2022-11-28T12:49:17.924Z,100797.06
2022-11-28T12:54:33.918Z,100812.13
2022-11-28T12:59:51.053Z,100809.44
2022-11-28T13:05:31.008Z,100796.66
2022-11-28T13:11:05.325Z,100806.03
2022-11-28T13:16:27.476Z,100802.19
2022-11-28T13:21:46.093Z,100798.34
2022-11-28T13:26:59.564Z,100807.06
2022-11-28T13:32:25.907Z,100794.19
2022-11-28T13:38:38.110Z,100819.63
2022-11-28T13:43:54.393Z,100825.53
2022-11-28T13:49:14.450Z,100821.66
2022-11-28T13:54:20.658Z,100822.16
2022-11-28T13:59:25.374Z,100810.44
2022-11-28T14:04:30.193Z,100806.63
2022-11-28T14:10:01.528Z,100818.66
2022-11-28T14:15:22.375Z,100826.88
2022-11-28T14:20:43.591Z,100828.38
2022-11-28T14:25:49.560Z,100787.06
2022-11-28T14:31:00.524Z,100835.22
2022-11-28T14:36:23.422Z,100836.72
2022-11-28T14:41:25.830Z,100801.78
2022-11-28T14:46:29.720Z,100830.91
2022-11-28T14:52:15.787Z,100832.56
2022-11-28T14:57:36.469Z,100825.88
2022-11-28T15:02:38.944Z,100831.56
2022-11-28T15:07:59.243Z,100828.06
2022-11-28T15:13:36.917Z,100822.50
2022-11-28T15:18:44.285Z,100777.53
2022-11-28T15:23:49.864Z,100828.34
2022-11-28T15:29:08.959Z,100839.91
2022-11-28T15:34:11.729Z,100808.63
2022-11-28T15:39:40.858Z,100832.72
2022-11-28T15:44:44.372Z,100819.66
2022-11-28T15:49:47.259Z,100797.75
2022-11-28T15:54:52.106Z,100794.88
2022-11-28T15:59:57.506Z,100823.31
2022-11-28T16:05:09.730Z,100803.91
2022-11-28T16:10:24.092Z,100836.50
2022-11-28T16:15:27.633Z,100796.00
2022-11-28T16:20:35.054Z,100800.84
2022-11-28T16:25:38.575Z,100818.94
2022-11-28T16:30:48.285Z,100806.00
2022-11-28T16:35:50.992Z,100823.09
2022-11-28T16:41:00.630Z,100819.72
2022-11-28T16:46:07.083Z,100834.09
2022-11-28T16:51:33.536Z,100824.06
2022-11-28T16:56:35.728Z,100824.72
2022-11-28T17:01:38.590Z,100824.22
2022-11-28T17:06:41.140Z,100834.22
2022-11-28T17:11:48.018Z,100800.41
2022-11-28T17:16:50.416Z,100833.56
2022-11-28T17:21:55.397Z,100789.50
2022-11-28T17:26:57.782Z,100781.88
2022-11-28T17:32:02.310Z,100834.56
2022-11-28T17:37:05.682Z,100828.22
2022-11-28T17:42:07.960Z,100815.66
2022-11-28T17:47:10.435Z,100827.56
2022-11-28T17:52:12.855Z,100801.19
2022-11-28T17:57:15.284Z,100818.94
2022-11-28T18:02:17.520Z,100794.16
2022-11-28T18:07:19.875Z,100801.00
2022-11-28T18:12:22.203Z,100819.91
2022-11-28T18:17:24.469Z,100800.81
2022-11-28T18:22:26.817Z,100778.53
2022-11-28T18:27:29.693Z,100798.78
2022-11-28T18:32:33.608Z,100785.53
2022-11-28T18:37:36.668Z,100790.56
2022-11-28T18:42:39.478Z,100805.28
2022-11-28T18:47:41.677Z,100815.31
2022-11-28T18:52:43.825Z,100772.75
2022-11-28T18:57:46.208Z,100806.25
2022-11-28T19:02:48.474Z,100794.97
2022-11-28T19:07:50.876Z,100787.97
2022-11-28T19:12:53.125Z,100794.53
2022-11-28T19:17:55.502Z,100792.88
2022-11-28T19:22:57.894Z,100796.84
2022-11-28T19:28:00.210Z,100802.91
2022-11-28T19:33:02.663Z,100804.91
2022-11-28T19:38:04.881Z,100787.00
2022-11-28T19:43:07.344Z,100791.81
2022-11-28T19:48:09.602Z,100789.00
2022-11-28T19:53:11.987Z,100789.47
2022-11-28T19:58:14.402Z,100801.44
2022-11-28T20:03:17.456Z,100829.47
2022-11-28T20:08:19.895Z,100818.72
2022-11-28T20:13:22.060Z,100792.81
2022-11-28T20:18:24.461Z,100819.88
2022-11-28T20:23:27.667Z,100798.06
2022-11-28T20:28:32.490Z,100795.03
2022-11-28T20:33:34.898Z,100831.47
2022-11-28T20:38:37.467Z,100820.22
2022-11-28T20:43:41.542Z,100823.66
2022-11-28T20:48:44.521Z,100813.34
2022-11-28T20:53:47.213Z,100805.78
2022-11-28T20:58:50.225Z,100796.22
2022-11-28T21:03:53.001Z,100798.56
2022-11-28T21:08:56.512Z,100746.41
2022-11-28T21:13:58.984Z,100792.97
2022-11-28T21:19:09.962Z,100807.25
2022-11-28T21:24:13.614Z,100819.94
2022-11-28T21:29:15.981Z,100804.59
2022-11-28T21:34:19.818Z,100795.97
2022-11-28T21:39:22.514Z,100777.03
2022-11-28T21:44:24.896Z,100807.31
2022-11-28T21:49:29.170Z,100778.31
2022-11-28T21:54:31.344Z,100798.22
2022-11-28T21:59:33.688Z,100754.31
2022-11-28T22:04:35.977Z,100782.50
2022-11-28T22:09:38.398Z,100791.50
2022-11-28T22:14:40.865Z,100755.84
2022-11-28T22:19:43.309Z,100762.78
2022-11-28T22:24:45.933Z,100724.69
2022-11-28T22:29:48.423Z,100744.34
2022-11-28T22:34:51.160Z,100728.34
2022-11-28T22:39:53.441Z,100723.50
2022-11-28T22:44:55.707Z,100730.91
2022-11-28T22:49:58.092Z,100716.97
2022-11-28T22:55:00.528Z,100695.56
2022-11-28T23:00:02.768Z,100705.94
2022-11-28T23:05:05.528Z,100715.81
2022-11-28T23:10:08.716Z,100687.56
2022-11-28T23:15:11.325Z,100676.19
2022-11-28T23:20:14.883Z,100699.97
2022-11-28T23:25:17.248Z,100668.66
2022-11-28T23:30:19.889Z,100705.56
2022-11-28T23:35:22.217Z,100678.88
2022-11-28T23:40:24.444Z,100692.28
2022-11-28T23:45:27.224Z,100675.50
2022-11-28T23:50:29.751Z,100695.63
2022-11-28T23:55:34.981Z,100706.31
